Abbot, Maine
Current Conditions -  °F | °C
As of 9:55 AM on Monday 24 Nov 2014 (Local Time) from KWVL Reporting Station
Overcast Overcast  
Wind Chill: 54°   Ceiling: 600
Heat Index: 54°   Visibility: 8mi
Dew Point: 52°   Wind: 8mph
Humidity: 94%   Direction: 150°SSE
Pressure: 29.75"   Gusts: 20mph
Location:  44.94°N, 69.7°W
Report Text: KWVL 241455Z 15007G17KT 120V200 8SM BKN006 OVC015 12/11 A2975 RMK AO1 P0010 60018 57061
Loading
Personal Weather Stations






























Interactive Weather Map New forecast layout! Learn more

10-Day Weather Forecast

Advertisements
Track Severe Weather on mobile